createdAt,value
2022-09-15T00:00:29.120Z,83.94
2022-09-15T00:02:55.932Z,83.48
2022-09-15T00:05:22.497Z,84.11
2022-09-15T00:07:48.950Z,83.80
2022-09-15T00:10:15.491Z,83.81
2022-09-15T00:12:42.025Z,83.59
2022-09-15T00:15:08.877Z,84.06
2022-09-15T00:17:35.316Z,83.81
2022-09-15T00:20:02.042Z,84.42
2022-09-15T00:22:28.424Z,83.75
2022-09-15T00:24:54.837Z,84.45
2022-09-15T00:27:21.206Z,83.92
2022-09-15T00:29:47.571Z,84.26
2022-09-15T00:32:13.965Z,85.00
2022-09-15T00:34:40.375Z,84.68
2022-09-15T00:37:07.129Z,84.92
2022-09-15T00:39:33.500Z,84.73
2022-09-15T00:41:59.877Z,84.80
2022-09-15T00:44:35.447Z,84.27
2022-09-15T00:47:18.828Z,84.47
2022-09-15T00:49:48.415Z,85.18
2022-09-15T00:52:40.790Z,84.20
2022-09-15T00:55:29.005Z,85.22
2022-09-15T00:58:07.034Z,85.54
2022-09-15T01:00:34.834Z,84.54
2022-09-15T01:03:02.267Z,85.71
2022-09-15T01:05:45.591Z,85.17
2022-09-15T01:08:22.104Z,84.42
2022-09-15T01:10:49.180Z,85.30
2022-09-15T01:13:15.585Z,85.56
2022-09-15T01:16:13.593Z,85.78
2022-09-15T01:19:04.983Z,84.74
2022-09-15T01:21:45.127Z,85.83
2022-09-15T01:24:33.481Z,85.54
2022-09-15T01:27:41.439Z,85.73
2022-09-15T01:30:15.300Z,85.46
2022-09-15T01:33:06.607Z,85.59
2022-09-15T01:36:05.431Z,85.74
2022-09-15T01:38:42.061Z,85.54
2022-09-15T01:41:11.504Z,86.64
2022-09-15T01:43:44.303Z,85.67
2022-09-15T01:46:12.054Z,86.41
2022-09-15T01:48:39.453Z,85.47
2022-09-15T01:51:07.003Z,85.41
2022-09-15T01:53:34.250Z,85.72
2022-09-15T01:56:09.939Z,85.93
2022-09-15T01:58:38.572Z,85.90
2022-09-15T02:01:11.368Z,86.50
2022-09-15T02:03:51.613Z,85.75
2022-09-15T02:06:49.581Z,87.08
2022-09-15T02:09:28.108Z,86.24
2022-09-15T02:12:03.376Z,86.14
2022-09-15T02:14:48.049Z,85.68
2022-09-15T02:17:18.920Z,86.80
2022-09-15T02:19:50.435Z,85.71
2022-09-15T02:22:30.630Z,87.15
2022-09-15T02:25:04.899Z,86.75
2022-09-15T02:27:37.797Z,86.65
2022-09-15T02:30:11.612Z,86.11
2022-09-15T02:32:46.598Z,86.57
2022-09-15T02:35:15.830Z,86.49
2022-09-15T02:37:43.199Z,86.72
2022-09-15T02:40:10.462Z,86.33
2022-09-15T02:42:37.044Z,86.62
2022-09-15T02:45:04.400Z,86.93
2022-09-15T02:47:31.977Z,86.65
2022-09-15T02:49:58.542Z,86.75
2022-09-15T02:52:26.084Z,86.51
2022-09-15T02:54:52.472Z,86.31
2022-09-15T02:57:18.825Z,86.26
2022-09-15T03:00:03.817Z,86.85
2022-09-15T03:02:31.274Z,86.73
2022-09-15T03:04:57.722Z,85.83
2022-09-15T03:07:24.818Z,86.34
2022-09-15T03:09:51.169Z,86.53
2022-09-15T03:12:17.674Z,86.27
2022-09-15T03:14:44.412Z,85.84
2022-09-15T03:17:10.761Z,85.69
2022-09-15T03:19:37.268Z,86.68
2022-09-15T03:22:03.653Z,86.01
2022-09-15T03:24:30.077Z,86.32
2022-09-15T03:26:56.462Z,86.56
2022-09-15T03:29:23.003Z,86.88
2022-09-15T03:31:49.774Z,86.42
2022-09-15T03:34:16.318Z,86.04
2022-09-15T03:36:43.076Z,86.18
2022-09-15T03:39:11.824Z,86.27
2022-09-15T03:41:38.411Z,86.38
2022-09-15T03:44:04.782Z,86.66
2022-09-15T03:46:31.194Z,86.56
2022-09-15T03:48:57.565Z,86.55
2022-09-15T03:51:24.092Z,86.25
2022-09-15T03:53:50.518Z,86.70
2022-09-15T03:56:19.759Z,86.46
2022-09-15T03:58:46.092Z,85.49
2022-09-15T04:01:12.652Z,87.05
2022-09-15T04:03:45.284Z,86.23
2022-09-15T04:06:15.048Z,86.60
2022-09-15T04:08:41.855Z,86.48
2022-09-15T04:11:10.543Z,85.85
2022-09-15T04:13:38.629Z,85.98
2022-09-15T04:16:08.096Z,86.93
2022-09-15T04:18:35.678Z,86.53
2022-09-15T04:21:06.919Z,86.65
2022-09-15T04:23:33.819Z,86.40
2022-09-15T04:26:05.948Z,85.69
2022-09-15T04:28:34.402Z,85.66
2022-09-15T04:31:12.741Z,86.15
2022-09-15T04:33:40.689Z,85.29
2022-09-15T04:36:13.103Z,85.22
2022-09-15T04:38:39.554Z,85.22
2022-09-15T04:41:07.007Z,85.59
2022-09-15T04:43:33.792Z,85.87
2022-09-15T04:46:00.615Z,85.43
2022-09-15T04:48:27.819Z,85.38
2022-09-15T04:50:54.685Z,85.19
2022-09-15T04:53:21.400Z,85.59
2022-09-15T04:55:48.064Z,85.39
2022-09-15T04:58:14.404Z,85.46
2022-09-15T05:00:45.929Z,84.69
2022-09-15T05:03:13.979Z,85.18
2022-09-15T05:05:41.170Z,84.80
2022-09-15T05:08:08.084Z,85.81
2022-09-15T05:10:34.504Z,86.07
2022-09-15T05:13:00.865Z,85.66
2022-09-15T05:15:27.225Z,86.06
2022-09-15T05:17:53.631Z,85.80
2022-09-15T05:20:20.190Z,85.88
2022-09-15T05:22:46.620Z,85.91
2022-09-15T05:25:13.110Z,85.63
2022-09-15T05:27:39.724Z,85.14
2022-09-15T05:30:35.197Z,85.43
2022-09-15T05:32:53.829Z,84.84
2022-09-15T05:35:20.223Z,85.16
2022-09-15T05:37:46.604Z,85.95
2022-09-15T05:40:12.992Z,86.11
2022-09-15T05:42:40.459Z,85.90
2022-09-15T05:45:07.597Z,85.50
2022-09-15T05:47:34.099Z,85.71
2022-09-15T05:50:00.457Z,85.66
2022-09-15T05:52:26.848Z,85.87
2022-09-15T05:54:58.320Z,85.84
2022-09-15T05:57:25.526Z,85.64
2022-09-15T05:59:51.990Z,85.76
2022-09-15T06:02:18.400Z,85.42
2022-09-15T06:04:44.783Z,85.26
2022-09-15T06:07:11.200Z,85.72
2022-09-15T06:09:37.847Z,85.85
2022-09-15T06:12:04.294Z,86.07
2022-09-15T06:14:30.738Z,85.02
2022-09-15T06:16:57.182Z,84.93
2022-09-15T06:19:23.951Z,85.33
2022-09-15T06:21:52.421Z,85.42
2022-09-15T06:24:18.841Z,85.11
2022-09-15T06:26:45.570Z,84.91
2022-09-15T06:29:12.861Z,85.63
2022-09-15T06:31:39.585Z,85.32
2022-09-15T06:34:06.959Z,85.19
2022-09-15T06:36:34.007Z,85.08
2022-09-15T06:39:00.538Z,85.42
2022-09-15T06:41:38.155Z,85.66
2022-09-15T06:44:09.737Z,86.16
2022-09-15T06:46:36.396Z,86.26
2022-09-15T06:49:02.894Z,86.30
2022-09-15T06:51:36.867Z,86.38
2022-09-15T06:54:04.520Z,86.31
2022-09-15T06:56:34.583Z,86.38
2022-09-15T06:59:06.625Z,86.21
2022-09-15T07:01:33.652Z,86.44
2022-09-15T07:04:02.870Z,86.90
2022-09-15T07:06:31.438Z,86.40
2022-09-15T07:09:01.107Z,86.52
2022-09-15T07:11:27.987Z,86.96
2022-09-15T07:13:54.765Z,86.97
2022-09-15T07:16:23.333Z,86.63
2022-09-15T07:18:52.437Z,87.11
2022-09-15T07:21:20.329Z,87.24
2022-09-15T07:23:47.552Z,87.48
2022-09-15T07:26:23.991Z,87.83
2022-09-15T07:28:54.144Z,87.15
2022-09-15T07:31:25.076Z,87.03
2022-09-15T07:33:51.948Z,87.62
2022-09-15T07:36:19.395Z,87.25
2022-09-15T07:38:49.959Z,87.10
2022-09-15T07:41:21.663Z,87.25
2022-09-15T07:43:50.113Z,86.92
2022-09-15T07:46:18.382Z,87.02
2022-09-15T07:48:49.698Z,87.33
2022-09-15T07:51:17.594Z,87.00
2022-09-15T07:53:46.032Z,87.11
2022-09-15T07:56:13.356Z,87.78
2022-09-15T07:58:39.846Z,87.30
2022-09-15T08:01:11.529Z,87.22
2022-09-15T08:03:48.574Z,86.92
2022-09-15T08:06:17.224Z,87.46
2022-09-15T08:08:47.271Z,87.61
2022-09-15T08:11:19.744Z,87.48
2022-09-15T08:13:47.823Z,87.68
2022-09-15T08:16:16.959Z,87.92
2022-09-15T08:18:44.677Z,87.89
2022-09-15T08:21:15.818Z,87.93
2022-09-15T08:23:43.101Z,87.67
2022-09-15T08:26:14.326Z,87.69
2022-09-15T08:28:42.614Z,87.72
2022-09-15T08:31:11.676Z,87.67
2022-09-15T08:33:44.611Z,87.48
2022-09-15T08:36:12.782Z,87.62
2022-09-15T08:38:41.117Z,87.99
2022-09-15T08:41:13.821Z,88.07
2022-09-15T08:44:03.721Z,88.34
2022-09-15T08:46:38.553Z,88.39
2022-09-15T08:49:23.475Z,87.99
2022-09-15T08:52:03.398Z,87.83
2022-09-15T08:54:31.565Z,87.89
2022-09-15T08:56:58.805Z,87.63
2022-09-15T08:59:34.571Z,88.11
2022-09-15T09:02:15.006Z,88.23
2022-09-15T09:05:12.517Z,87.80
2022-09-15T09:08:14.708Z,88.03
2022-09-15T09:11:01.278Z,87.95
2022-09-15T09:13:41.328Z,88.10
2022-09-15T09:16:23.006Z,88.18
2022-09-15T09:19:16.352Z,88.35
2022-09-15T09:22:01.619Z,88.00
2022-09-15T09:24:39.932Z,87.89
2022-09-15T09:27:21.602Z,87.93
2022-09-15T09:29:55.457Z,88.23
2022-09-15T09:32:33.948Z,88.15
2022-09-15T09:35:35.123Z,87.82
2022-09-15T09:38:02.835Z,87.95
2022-09-15T09:40:34.908Z,88.59
2022-09-15T09:43:01.745Z,88.31
2022-09-15T09:45:30.222Z,88.80
2022-09-15T09:48:02.801Z,88.52
2022-09-15T09:50:35.013Z,88.58
2022-09-15T09:53:23.679Z,88.96
2022-09-15T09:55:50.219Z,89.03
2022-09-15T09:58:29.409Z,88.82
2022-09-15T10:01:14.384Z,88.70
2022-09-15T10:03:47.278Z,89.29
2022-09-15T10:06:17.030Z,89.29
2022-09-15T10:09:00.208Z,89.35
2022-09-15T10:11:44.602Z,89.68
2022-09-15T10:14:34.809Z,89.59
2022-09-15T10:17:11.765Z,89.43
2022-09-15T10:20:17.323Z,89.92
2022-09-15T10:22:47.200Z,89.65
2022-09-15T10:25:20.280Z,90.51
2022-09-15T10:28:21.772Z,90.45
2022-09-15T10:31:15.797Z,90.11
2022-09-15T10:33:53.246Z,89.90
2022-09-15T10:36:30.436Z,89.92
2022-09-15T10:39:18.699Z,90.77
2022-09-15T10:42:09.528Z,90.43
2022-09-15T10:44:52.266Z,90.34
2022-09-15T10:47:40.120Z,90.86
2022-09-15T10:50:25.993Z,90.76
2022-09-15T10:53:29.290Z,90.61
2022-09-15T10:56:35.283Z,90.31
2022-09-15T10:59:21.138Z,90.87
2022-09-15T11:02:23.009Z,90.90
2022-09-15T11:05:27.486Z,91.42
2022-09-15T11:08:19.117Z,91.30
2022-09-15T11:11:09.982Z,91.44
2022-09-15T11:13:59.643Z,91.76
2022-09-15T11:16:40.554Z,91.26
2022-09-15T11:19:41.078Z,91.43
2022-09-15T11:22:24.594Z,91.43
2022-09-15T11:24:56.516Z,91.65
2022-09-15T11:28:14.335Z,91.69
2022-09-15T11:31:13.958Z,91.76
2022-09-15T11:33:50.704Z,91.52
2022-09-15T11:36:32.844Z,91.43
2022-09-15T11:39:09.533Z,90.97
2022-09-15T11:41:45.204Z,91.08
2022-09-15T11:44:22.902Z,91.34
2022-09-15T11:47:27.852Z,91.72
2022-09-15T11:50:06.315Z,91.99
2022-09-15T11:53:16.720Z,91.45
2022-09-15T11:55:51.268Z,90.94
2022-09-15T11:58:24.838Z,91.18
2022-09-15T12:00:57.457Z,91.28
2022-09-15T12:03:37.348Z,91.25
2022-09-15T12:06:09.601Z,91.23
2022-09-15T12:08:38.031Z,91.01
2022-09-15T12:11:10.512Z,91.49
2022-09-15T12:13:37.580Z,91.08
2022-09-15T12:16:05.107Z,91.00
2022-09-15T12:18:41.741Z,91.15
2022-09-15T12:21:13.412Z,91.21
2022-09-15T12:23:59.045Z,91.14
2022-09-15T12:26:27.104Z,91.27
2022-09-15T12:28:56.160Z,91.54
2022-09-15T12:31:38.441Z,91.14
2022-09-15T12:34:36.947Z,91.15
2022-09-15T12:37:25.683Z,90.70
2022-09-15T12:39:54.376Z,91.22
2022-09-15T12:42:31.248Z,90.96
2022-09-15T12:45:02.982Z,90.60
2022-09-15T12:47:40.387Z,90.63
2022-09-15T12:50:16.093Z,90.45
2022-09-15T12:52:47.138Z,90.43
2022-09-15T12:55:23.984Z,90.79
2022-09-15T12:57:53.868Z,89.97
2022-09-15T13:00:20.301Z,90.31
2022-09-15T13:02:49.231Z,90.46
2022-09-15T13:05:46.672Z,90.18
2022-09-15T13:08:34.569Z,90.03
2022-09-15T13:11:25.665Z,90.16
2022-09-15T13:14:15.140Z,89.80
2022-09-15T13:16:44.006Z,89.96
2022-09-15T13:19:20.415Z,90.00
2022-09-15T13:22:13.338Z,89.79
2022-09-15T13:25:10.878Z,88.98
2022-09-15T13:27:54.190Z,89.82
2022-09-15T13:30:20.702Z,89.41
2022-09-15T13:33:04.895Z,89.12
2022-09-15T13:35:40.985Z,88.84
2022-09-15T13:38:46.960Z,89.72
2022-09-15T13:41:30.942Z,88.33
2022-09-15T13:44:26.138Z,87.56
2022-09-15T13:47:20.369Z,88.05
2022-09-15T13:50:06.191Z,88.19
2022-09-15T13:52:58.572Z,88.51
2022-09-15T13:55:28.214Z,87.34
2022-09-15T14:01:06.860Z,87.39
2022-09-15T14:03:48.283Z,87.89
2022-09-15T14:06:19.619Z,87.32
2022-09-15T14:08:51.215Z,87.75
2022-09-15T14:11:25.602Z,88.03
2022-09-15T14:13:53.684Z,87.56
2022-09-15T14:16:24.854Z,87.48
2022-09-15T14:18:54.184Z,87.05
2022-09-15T14:21:26.373Z,86.04
2022-09-15T14:23:56.351Z,86.65
2022-09-15T14:26:26.602Z,85.42
2022-09-15T14:29:03.004Z,84.96
2022-09-15T14:31:38.621Z,85.38
2022-09-15T14:34:16.203Z,84.96
2022-09-15T14:36:43.396Z,85.11
2022-09-15T14:39:20.864Z,84.68
2022-09-15T14:41:48.676Z,85.34
2022-09-15T14:47:28.282Z,84.57
2022-09-15T14:50:09.461Z,83.83
2022-09-15T14:52:40.937Z,84.11
2022-09-15T14:55:23.462Z,84.02
2022-09-15T14:58:15.997Z,83.80
2022-09-15T15:01:01.714Z,84.07
2022-09-15T15:03:59.940Z,83.32
2022-09-15T15:06:34.983Z,82.75
2022-09-15T15:09:21.536Z,82.38
2022-09-15T15:11:56.699Z,82.65
2022-09-15T15:16:52.930Z,81.72
2022-09-15T15:19:37.907Z,82.12
2022-09-15T15:22:13.602Z,81.70
2022-09-15T15:24:46.499Z,82.03
2022-09-15T15:27:35.321Z,83.05
2022-09-15T15:30:31.163Z,82.28
2022-09-15T15:33:25.580Z,81.93
2022-09-15T15:36:08.820Z,82.11
2022-09-15T15:38:42.631Z,81.40
2022-09-15T15:41:22.391Z,82.79
2022-09-15T15:44:26.601Z,81.81
2022-09-15T15:46:57.230Z,81.78
2022-09-15T15:49:29.961Z,81.26
2022-09-15T15:51:58.563Z,80.82
2022-09-15T15:54:26.800Z,81.46
2022-09-15T15:56:53.659Z,81.55
2022-09-15T15:59:20.735Z,81.60
2022-09-15T16:01:53.712Z,81.49
2022-09-15T16:04:22.050Z,81.59
2022-09-15T16:06:48.618Z,81.46
2022-09-15T16:09:17.539Z,80.90
2022-09-15T16:11:44.151Z,80.53
2022-09-15T16:14:13.735Z,80.45
2022-09-15T16:16:41.108Z,80.66
2022-09-15T16:19:09.081Z,80.00
2022-09-15T16:21:39.834Z,80.58
2022-09-15T16:24:11.162Z,79.95
2022-09-15T16:26:39.365Z,80.14
2022-09-15T16:29:06.836Z,80.82
2022-09-15T16:31:35.279Z,80.27
2022-09-15T16:34:03.632Z,80.02
2022-09-15T16:36:34.002Z,79.69
2022-09-15T16:39:01.021Z,80.34
2022-09-15T16:41:30.261Z,80.21
2022-09-15T16:43:56.888Z,80.20
2022-09-15T16:46:23.711Z,80.45
2022-09-15T16:48:50.606Z,80.39
2022-09-15T16:51:34.746Z,80.57
2022-09-15T16:54:01.315Z,80.33
2022-09-15T16:56:27.818Z,79.95
2022-09-15T16:59:00.161Z,79.73
2022-09-15T17:01:28.313Z,79.93
2022-09-15T17:03:56.022Z,79.60
2022-09-15T17:06:23.380Z,80.04
2022-09-15T17:08:50.146Z,79.65
2022-09-15T17:11:19.709Z,80.09
2022-09-15T17:13:46.874Z,80.17
2022-09-15T17:16:15.846Z,80.10
2022-09-15T17:18:42.406Z,79.77
2022-09-15T17:21:13.551Z,79.34
2022-09-15T17:23:43.925Z,79.12
2022-09-15T17:26:30.520Z,79.08
2022-09-15T17:28:59.520Z,79.35
2022-09-15T17:31:32.350Z,78.60
2022-09-15T17:33:59.747Z,79.54
2022-09-15T17:36:27.740Z,79.85
2022-09-15T17:38:54.219Z,79.26
2022-09-15T17:41:22.537Z,79.26
2022-09-15T17:43:49.512Z,79.09
2022-09-15T17:46:16.837Z,78.76
2022-09-15T17:48:43.447Z,79.04
2022-09-15T17:51:15.162Z,79.56
2022-09-15T17:53:42.784Z,79.14
2022-09-15T17:56:09.564Z,79.13
2022-09-15T17:58:35.998Z,79.27
2022-09-15T18:01:03.868Z,79.35
2022-09-15T18:03:34.753Z,78.90
2022-09-15T18:06:05.253Z,79.27
2022-09-15T18:08:36.006Z,78.92
2022-09-15T18:11:04.158Z,79.00
2022-09-15T18:13:31.294Z,78.94
2022-09-15T18:16:04.237Z,79.05
2022-09-15T18:18:30.764Z,78.87
2022-09-15T18:20:59.323Z,78.40
2022-09-15T18:23:28.401Z,78.55
2022-09-15T18:25:55.228Z,78.91
2022-09-15T18:28:21.671Z,79.12
2022-09-15T18:30:49.774Z,78.02
2022-09-15T18:33:24.121Z,79.28
2022-09-15T18:35:53.201Z,79.22
2022-09-15T18:38:22.532Z,78.67
2022-09-15T18:40:53.278Z,78.57
2022-09-15T18:43:20.773Z,78.52
2022-09-15T18:45:48.179Z,78.09
2022-09-15T18:48:14.646Z,79.20
2022-09-15T18:50:43.422Z,78.48
2022-09-15T18:53:10.124Z,79.34
2022-09-15T18:55:36.595Z,78.85
2022-09-15T18:58:03.014Z,79.53
2022-09-15T19:00:29.907Z,79.52
2022-09-15T19:02:58.151Z,79.43
2022-09-15T19:05:25.176Z,78.94
2022-09-15T19:07:51.548Z,79.38
2022-09-15T19:10:21.332Z,79.52
2022-09-15T19:12:47.674Z,79.74
2022-09-15T19:15:14.895Z,79.17
2022-09-15T19:17:42.443Z,80.10
2022-09-15T19:20:11.120Z,80.16
2022-09-15T19:22:37.949Z,80.38
2022-09-15T19:25:06.621Z,80.19
2022-09-15T19:27:33.529Z,80.28
2022-09-15T19:30:00.713Z,79.90
2022-09-15T19:32:27.100Z,80.46
2022-09-15T19:34:53.603Z,80.57
2022-09-15T19:37:21.320Z,81.00
2022-09-15T19:39:48.521Z,80.02
2022-09-15T19:44:47.823Z,80.49
2022-09-15T19:47:14.238Z,79.79
2022-09-15T19:49:40.646Z,80.83
2022-09-15T19:52:07.252Z,80.81
2022-09-15T19:54:34.556Z,80.21
2022-09-15T19:57:01.817Z,81.20
2022-09-15T19:59:31.726Z,80.65
2022-09-15T20:02:00.789Z,80.55
2022-09-15T20:04:28.315Z,80.20
2022-09-15T20:06:54.950Z,80.79
2022-09-15T20:09:21.323Z,80.77
2022-09-15T20:11:47.733Z,80.58
2022-09-15T20:14:16.417Z,80.52
2022-09-15T20:16:43.096Z,80.13
2022-09-15T20:19:09.556Z,80.13
2022-09-15T20:21:49.675Z,80.93
2022-09-15T20:24:17.709Z,80.43
2022-09-15T20:26:44.348Z,80.58
2022-09-15T20:29:11.444Z,80.58
2022-09-15T20:31:37.994Z,80.95
2022-09-15T20:34:04.369Z,80.23
2022-09-15T20:36:33.386Z,80.60
2022-09-15T20:39:01.447Z,80.20
2022-09-15T20:41:28.815Z,80.63
2022-09-15T20:43:55.307Z,81.21
2022-09-15T20:46:23.529Z,81.12
2022-09-15T20:48:51.445Z,80.65
2022-09-15T20:51:23.186Z,80.71
2022-09-15T20:53:52.312Z,80.66
2022-09-15T20:56:23.143Z,81.55
2022-09-15T20:58:49.525Z,81.09
2022-09-15T21:01:20.398Z,81.29
2022-09-15T21:03:47.723Z,81.09
2022-09-15T21:06:17.425Z,80.80
2022-09-15T21:08:44.713Z,81.19
2022-09-15T21:11:11.546Z,81.52
2022-09-15T21:13:40.620Z,81.46
2022-09-15T21:16:09.757Z,81.08
2022-09-15T21:18:39.415Z,81.25
2022-09-15T21:21:12.088Z,81.01
2022-09-15T21:23:42.651Z,81.22
2022-09-15T21:26:19.614Z,81.36
2022-09-15T21:28:46.199Z,81.50
2022-09-15T21:31:15.992Z,81.37
2022-09-15T21:33:44.026Z,81.15
2022-09-15T21:36:18.509Z,81.08
2022-09-15T21:38:45.097Z,81.23
2022-09-15T21:41:14.882Z,81.72
2022-09-15T21:43:43.076Z,81.24
2022-09-15T21:46:12.883Z,81.42
2022-09-15T21:48:40.096Z,81.41
2022-09-15T21:51:08.027Z,81.88
2022-09-15T21:53:37.708Z,81.46
2022-09-15T21:56:05.976Z,81.54
2022-09-15T21:58:38.942Z,81.48
2022-09-15T22:01:14.225Z,81.63
2022-09-15T22:03:42.206Z,81.75
2022-09-15T22:06:12.822Z,81.17
2022-09-15T22:08:39.932Z,82.19
2022-09-15T22:11:07.495Z,81.58
2022-09-15T22:13:36.390Z,81.28
2022-09-15T22:16:08.677Z,81.73
2022-09-15T22:18:39.887Z,81.74
2022-09-15T22:21:07.547Z,81.99
2022-09-15T22:23:34.378Z,81.63
2022-09-15T22:26:06.216Z,81.74
2022-09-15T22:28:32.864Z,81.84
2022-09-15T22:31:04.650Z,81.63
2022-09-15T22:33:31.476Z,81.88
2022-09-15T22:35:58.481Z,82.03
2022-09-15T22:38:27.307Z,81.82
2022-09-15T22:40:54.402Z,81.84
2022-09-15T22:43:21.289Z,81.89
2022-09-15T22:45:47.996Z,81.34
2022-09-15T22:48:14.412Z,81.46
2022-09-15T22:50:44.573Z,81.63
2022-09-15T22:53:12.737Z,81.56
2022-09-15T22:55:39.643Z,81.92
2022-09-15T22:58:06.780Z,81.56
2022-09-15T23:00:33.403Z,81.58
2022-09-15T23:03:00.701Z,81.49
2022-09-15T23:05:27.164Z,81.53
2022-09-15T23:07:53.544Z,81.67
2022-09-15T23:10:20.005Z,81.39
2022-09-15T23:12:46.438Z,81.20
2022-09-15T23:15:12.859Z,80.92
2022-09-15T23:17:39.477Z,81.17
2022-09-15T23:20:06.282Z,81.16
2022-09-15T23:22:32.678Z,81.27
2022-09-15T23:24:59.127Z,81.13
2022-09-15T23:27:25.580Z,81.38
2022-09-15T23:29:51.912Z,81.39
2022-09-15T23:32:18.271Z,81.23
2022-09-15T23:34:44.604Z,81.47
2022-09-15T23:37:12.025Z,81.08
2022-09-15T23:39:38.404Z,81.38
2022-09-15T23:42:04.826Z,81.12
2022-09-15T23:44:31.197Z,81.36
2022-09-15T23:46:57.625Z,81.46
2022-09-15T23:49:24.091Z,81.31
2022-09-15T23:51:50.445Z,81.51
2022-09-15T23:54:16.838Z,81.68
2022-09-15T23:56:43.330Z,81.62
2022-09-15T23:59:09.898Z,81.48
